createdAt,value
2018-02-14T00:01:42.981Z,97818.77
2018-02-14T00:04:11.277Z,97821.25
2018-02-14T00:06:39.545Z,97820.61
2018-02-14T00:09:07.808Z,97824.02
2018-02-14T00:11:36.864Z,97827.63
2018-02-14T00:14:05.176Z,97828.26
2018-02-14T00:16:33.481Z,97826.51
2018-02-14T00:19:01.765Z,97829.52
2018-02-14T00:21:30.804Z,97828.34
2018-02-14T00:23:59.073Z,97830.29
2018-02-14T00:26:27.368Z,97830.29
2018-02-14T00:28:55.627Z,97829.80
2018-02-14T00:31:23.913Z,97824.95
2018-02-14T00:33:52.200Z,97833.53
2018-02-14T00:36:20.496Z,97831.09
2018-02-14T00:38:48.759Z,97836.34
2018-02-14T00:41:17.029Z,97838.41
2018-02-14T00:43:45.313Z,97837.98
2018-02-14T00:46:13.610Z,97841.72
2018-02-14T00:48:41.874Z,97839.27
2018-02-14T00:51:10.148Z,97838.66
2018-02-14T00:53:38.435Z,97843.41
2018-02-14T00:56:06.725Z,97839.19
2018-02-14T00:58:35.860Z,97845.47
2018-02-14T01:01:04.150Z,97852.59
2018-02-14T01:03:32.427Z,97855.30
2018-02-14T01:06:00.730Z,97852.34
2018-02-14T01:08:28.996Z,97859.31
2018-02-14T01:10:57.287Z,97859.45
2018-02-14T01:13:25.574Z,97858.51
2018-02-14T01:15:54.612Z,97861.10
2018-02-14T01:18:22.889Z,97863.97
2018-02-14T01:20:51.171Z,97869.75
2018-02-14T01:23:19.440Z,97872.58
2018-02-14T01:25:47.722Z,97878.28
2018-02-14T01:28:15.995Z,97872.76
2018-02-14T01:30:44.788Z,97872.97
2018-02-14T01:33:13.055Z,97865.27
2018-02-14T01:35:41.340Z,97881.27
2018-02-14T01:38:09.604Z,97874.39
2018-02-14T01:40:37.876Z,97876.09
2018-02-14T01:43:06.177Z,97874.77
2018-02-14T01:45:34.449Z,97882.23
2018-02-14T01:48:02.715Z,97880.86
2018-02-14T01:50:39.819Z,97878.27
2018-02-14T01:53:08.092Z,97877.78
2018-02-14T01:55:36.373Z,97876.22
2018-02-14T01:58:04.672Z,97884.39
2018-02-14T02:00:32.945Z,97877.12
2018-02-14T02:03:01.209Z,97886.36
2018-02-14T02:05:29.497Z,97883.39
2018-02-14T02:07:57.777Z,97887.48
2018-02-14T02:10:26.050Z,97893.64
2018-02-14T02:12:54.344Z,97894.69
2018-02-14T02:15:23.384Z,97904.83
2018-02-14T02:17:51.668Z,97903.43
2018-02-14T02:20:19.960Z,97908.74
2018-02-14T02:22:48.216Z,97908.28
2018-02-14T02:25:16.484Z,97908.97
2018-02-14T02:27:44.778Z,97905.86
2018-02-14T02:30:13.036Z,97910.44
2018-02-14T02:32:41.433Z,97910.79
2018-02-14T02:35:09.713Z,97911.14
2018-02-14T02:37:37.984Z,97909.78
2018-02-14T02:40:23.990Z,97914.05
2018-02-14T02:42:52.251Z,97910.67
2018-02-14T02:45:20.533Z,97906.70
2018-02-14T02:47:48.977Z,97910.05
2018-02-14T02:50:17.254Z,97902.86
2018-02-14T02:52:45.524Z,97905.58
2018-02-14T02:55:13.813Z,97903.28
2018-02-14T02:57:42.081Z,97903.75
2018-02-14T03:00:10.765Z,97900.41
2018-02-14T03:02:39.054Z,97901.45
2018-02-14T03:05:07.316Z,97896.91
2018-02-14T03:07:35.585Z,97903.72
2018-02-14T03:10:03.872Z,97908.62
2018-02-14T03:12:32.143Z,97911.09
2018-02-14T03:15:00.412Z,97914.74
2018-02-14T03:17:28.704Z,97912.00
2018-02-14T03:19:56.998Z,97911.77
2018-02-14T03:22:25.264Z,97911.38
2018-02-14T03:24:53.584Z,97920.66
2018-02-14T03:27:22.624Z,97914.78
2018-02-14T03:29:50.993Z,97923.62
2018-02-14T03:32:19.277Z,97925.92
2018-02-14T03:34:47.539Z,97928.78
2018-02-14T03:37:15.819Z,97938.39
2018-02-14T03:39:44.084Z,97932.81
2018-02-14T03:42:12.373Z,97937.23
2018-02-14T03:44:40.650Z,97935.72
2018-02-14T03:47:08.925Z,97941.70
2018-02-14T03:49:37.212Z,97941.64
2018-02-14T03:52:05.486Z,97939.08
2018-02-14T03:54:33.764Z,97941.69
2018-02-14T03:57:02.036Z,97943.00
2018-02-14T03:59:30.308Z,97945.77
2018-02-14T04:01:58.597Z,97945.56
2018-02-14T04:04:26.872Z,97953.30
2018-02-14T04:06:55.153Z,97959.30
2018-02-14T04:09:23.437Z,97955.89
2018-02-14T04:11:51.705Z,97964.08
2018-02-14T04:14:19.981Z,97961.52
2018-02-14T04:16:48.261Z,97964.32
2018-02-14T04:19:16.557Z,97972.78
2018-02-14T04:21:44.897Z,97974.52
2018-02-14T04:24:13.313Z,97974.88
2018-02-14T04:26:41.580Z,97979.91
2018-02-14T04:29:09.856Z,97981.13
2018-02-14T04:31:38.145Z,97983.45
2018-02-14T04:34:06.422Z,97988.25
2018-02-14T04:36:34.703Z,97998.50
2018-02-14T04:39:02.974Z,97997.67
2018-02-14T04:41:32.029Z,97999.98
2018-02-14T04:44:00.304Z,98003.28
2018-02-14T04:46:28.567Z,98008.50
2018-02-14T04:48:56.859Z,98007.95
2018-02-14T04:51:25.128Z,98017.16
2018-02-14T04:53:53.404Z,98016.05
2018-02-14T04:56:21.680Z,98017.70
2018-02-14T04:58:49.981Z,98025.84
2018-02-14T05:01:18.256Z,98027.01
2018-02-14T05:03:46.529Z,98027.61
2018-02-14T05:06:14.810Z,98024.78
2018-02-14T05:08:43.851Z,98031.08
2018-02-14T05:11:12.129Z,98027.44
2018-02-14T05:13:40.407Z,98031.47
2018-02-14T05:16:08.685Z,98031.33
2018-02-14T05:18:36.961Z,98035.17
2018-02-14T05:21:05.231Z,98031.23
2018-02-14T05:23:33.507Z,98036.80
2018-02-14T05:26:01.801Z,98040.63
2018-02-14T05:28:30.076Z,98048.06
2018-02-14T05:30:58.377Z,98050.09
2018-02-14T05:33:26.666Z,98049.84
2018-02-14T05:35:54.944Z,98049.66
2018-02-14T05:38:23.220Z,98054.05
2018-02-14T05:40:51.492Z,98062.84
2018-02-14T05:43:19.765Z,98066.73
2018-02-14T05:45:48.050Z,98063.13
2018-02-14T05:48:16.319Z,98063.72
2018-02-14T05:50:44.593Z,98070.28
2018-02-14T05:53:12.913Z,98066.84
2018-02-14T05:55:41.144Z,98071.16
2018-02-14T05:58:09.412Z,98083.40
2018-02-14T06:00:37.762Z,98077.45
2018-02-14T06:03:06.028Z,98073.14
2018-02-14T06:05:34.295Z,98075.58
2018-02-14T06:08:03.348Z,98079.18
2018-02-14T06:10:31.620Z,98083.72
2018-02-14T06:12:59.902Z,98090.02
2018-02-14T06:15:28.169Z,98094.34
2018-02-14T06:17:57.207Z,98093.06
2018-02-14T06:20:26.256Z,98091.01
2018-02-14T06:22:54.614Z,98093.59
2018-02-14T06:25:22.877Z,98097.53
2018-02-14T06:27:51.216Z,98103.26
2018-02-14T06:30:20.268Z,98108.70
2018-02-14T06:32:48.536Z,98109.36
2018-02-14T06:35:16.812Z,98107.41
2018-02-14T06:37:45.098Z,98115.12
2018-02-14T06:40:13.354Z,98115.76
2018-02-14T06:42:41.639Z,98125.16
2018-02-14T06:45:09.909Z,98124.69
2018-02-14T06:47:38.207Z,98127.95
2018-02-14T06:50:06.491Z,98126.81
2018-02-14T06:52:34.750Z,98126.81
2018-02-14T06:55:03.038Z,98131.30
2018-02-14T06:57:31.306Z,98136.38
2018-02-14T06:59:59.603Z,98131.30
2018-02-14T07:02:27.912Z,98135.27
2018-02-14T07:04:56.944Z,98128.58
2018-02-14T07:07:25.225Z,98130.78
2018-02-14T07:09:53.496Z,98132.94
2018-02-14T07:12:21.797Z,98131.08
2018-02-14T07:14:50.096Z,98138.05
2018-02-14T07:17:18.356Z,98137.95
2018-02-14T07:19:46.643Z,98134.45
2018-02-14T07:22:14.910Z,98137.62
2018-02-14T07:24:43.198Z,98136.71
2018-02-14T07:27:11.519Z,98139.77
2018-02-14T07:29:39.793Z,98144.62
2018-02-14T07:32:08.053Z,98138.88
2018-02-14T07:34:36.324Z,98148.05
2018-02-14T07:37:04.596Z,98143.25
2018-02-14T07:39:33.646Z,98143.94
2018-02-14T07:42:01.931Z,98145.25
2018-02-14T07:44:30.193Z,98147.17
2018-02-14T07:46:58.513Z,98143.67
2018-02-14T07:49:27.548Z,98145.95
2018-02-14T07:51:55.813Z,98150.92
2018-02-14T07:54:24.104Z,98151.12
2018-02-14T07:56:52.372Z,98159.20
2018-02-14T07:59:20.641Z,98162.31
2018-02-14T08:01:48.932Z,98161.38
2018-02-14T08:04:17.200Z,98165.34
2018-02-14T08:06:45.490Z,98162.67
2018-02-14T08:09:13.775Z,98170.76
2018-02-14T08:11:42.048Z,98172.80
2018-02-14T08:14:10.333Z,98174.66
2018-02-14T08:16:38.612Z,98181.66
2018-02-14T08:19:06.906Z,98178.87
2018-02-14T08:21:35.944Z,98176.27
2018-02-14T08:24:04.212Z,98180.66
2018-02-14T08:26:32.506Z,98185.89
2018-02-14T08:29:01.949Z,98185.38
2018-02-14T08:31:30.220Z,98187.75
2018-02-14T08:33:58.509Z,98195.99
2018-02-14T08:36:27.547Z,98186.52
2018-02-14T08:38:56.761Z,98200.31
2018-02-14T08:41:25.045Z,98204.48
2018-02-14T08:43:53.328Z,98206.66
2018-02-14T08:46:21.595Z,98205.83
2018-02-14T08:48:49.869Z,98204.67
2018-02-14T08:51:18.152Z,98199.71
2018-02-14T08:53:46.420Z,98206.09
2018-02-14T08:56:14.716Z,98208.27
2018-02-14T08:58:42.998Z,98211.39
2018-02-14T09:01:11.263Z,98209.59
2018-02-14T09:03:39.544Z,98209.91
2018-02-14T09:06:07.820Z,98222.42
2018-02-14T09:08:36.141Z,98225.07
2018-02-14T09:11:04.428Z,98224.89
2018-02-14T09:16:00.980Z,98222.11
2018-02-14T09:18:29.271Z,98218.69
2018-02-14T09:20:58.316Z,98222.09
2018-02-14T09:23:27.364Z,98223.21
2018-02-14T09:25:55.644Z,98221.34
2018-02-14T09:28:23.908Z,98220.19
2018-02-14T09:30:52.195Z,98227.13
2018-02-14T09:33:20.478Z,98232.52
2018-02-14T09:35:49.555Z,98234.66
2018-02-14T09:38:17.843Z,98234.58
2018-02-14T09:40:46.114Z,98235.24
2018-02-14T09:43:14.395Z,98242.09
2018-02-14T09:45:42.668Z,98238.36
2018-02-14T09:48:10.957Z,98233.86
2018-02-14T09:50:39.244Z,98239.66
2018-02-14T09:53:07.516Z,98238.36
2018-02-14T09:55:35.824Z,98227.89
2018-02-14T09:58:04.104Z,98221.08
2018-02-14T10:00:33.153Z,98229.16
2018-02-14T10:03:01.430Z,98237.83
2018-02-14T10:05:29.708Z,98239.64
2018-02-14T10:07:57.985Z,98247.62
2018-02-14T10:10:26.253Z,98245.34
2018-02-14T10:12:54.529Z,98243.27
2018-02-14T10:15:22.823Z,98241.67
2018-02-14T10:17:51.096Z,98241.72
2018-02-14T10:20:19.359Z,98236.12
2018-02-14T10:22:47.646Z,98240.05
2018-02-14T10:25:15.912Z,98237.56
2018-02-14T10:27:44.189Z,98241.64
2018-02-14T10:30:12.450Z,98233.17
2018-02-14T10:32:40.708Z,98228.56
2018-02-14T10:35:08.988Z,98218.37
2018-02-14T10:37:37.258Z,98219.03
2018-02-14T10:40:05.511Z,98214.34
2018-02-14T10:42:33.784Z,98225.44
2018-02-14T10:45:02.063Z,98236.08
2018-02-14T10:47:30.332Z,98225.94
2018-02-14T10:49:59.393Z,98218.53
2018-02-14T10:52:27.654Z,98208.71
2018-02-14T10:54:55.932Z,98192.45
2018-02-14T10:57:24.222Z,98193.77
2018-02-14T10:59:52.487Z,98196.92
2018-02-14T11:02:20.740Z,98197.23
2018-02-14T11:04:54.432Z,98203.15
2018-02-14T11:07:22.701Z,98210.52
2018-02-14T11:09:50.956Z,98207.98
2018-02-14T11:12:20.001Z,98202.97
2018-02-14T11:14:48.260Z,98193.78
2018-02-14T11:17:16.526Z,98200.50
2018-02-14T11:19:44.815Z,98187.52
2018-02-14T11:22:13.095Z,98184.11
2018-02-14T11:24:41.356Z,98178.16
2018-02-14T11:27:09.633Z,98177.48
2018-02-14T11:29:37.900Z,98172.44
2018-02-14T11:32:06.160Z,98172.14
2018-02-14T11:34:34.433Z,98179.77
2018-02-14T11:37:04.700Z,98184.30
2018-02-14T11:39:32.956Z,98183.06
2018-02-14T11:42:01.238Z,98178.94
2018-02-14T11:44:29.488Z,98173.84
2018-02-14T11:46:57.752Z,98167.41
2018-02-14T11:49:26.804Z,98160.89
2018-02-14T11:51:55.060Z,98160.42
2018-02-14T11:54:23.329Z,98165.86
2018-02-14T11:56:51.611Z,98165.87
2018-02-14T11:59:19.877Z,98167.45
2018-02-14T12:01:48.147Z,98166.17
2018-02-14T12:04:16.404Z,98169.05
2018-02-14T12:06:45.448Z,98172.03
2018-02-14T12:09:13.708Z,98166.81
2018-02-14T12:11:41.993Z,98168.45
2018-02-14T12:14:10.263Z,98164.37
2018-02-14T12:16:38.529Z,98166.50
2018-02-14T12:19:06.792Z,98168.16
2018-02-14T12:21:35.073Z,98171.78
2018-02-14T12:24:03.345Z,98168.06
2018-02-14T12:26:31.614Z,98163.30
2018-02-14T12:28:59.893Z,98158.27
2018-02-14T12:31:28.152Z,98159.91
2018-02-14T12:33:57.171Z,98156.44
2018-02-14T12:36:25.449Z,98156.13
2018-02-14T12:38:55.241Z,98151.83
2018-02-14T12:41:24.277Z,98156.80
2018-02-14T12:43:52.536Z,98158.78
2018-02-14T12:46:20.808Z,98155.44
2018-02-14T12:48:49.077Z,98152.16
2018-02-14T12:51:17.335Z,98145.49
2018-02-14T12:53:46.388Z,98140.47
2018-02-14T12:56:14.640Z,98140.02
2018-02-14T12:58:42.915Z,98148.58
2018-02-14T13:01:11.177Z,98144.73
2018-02-14T13:03:39.454Z,98148.55
2018-02-14T13:06:07.713Z,98147.25
2018-02-14T13:08:35.986Z,98151.02
2018-02-14T13:11:04.248Z,98144.73
2018-02-14T13:13:33.292Z,98144.73
2018-02-14T13:16:01.557Z,98138.34
2018-02-14T13:18:29.816Z,98140.47
2018-02-14T13:20:58.120Z,98136.16
2018-02-14T13:23:26.393Z,98129.77
2018-02-14T13:25:54.692Z,98121.14
2018-02-14T13:28:22.956Z,98123.26
2018-02-14T13:30:51.235Z,98123.91
2018-02-14T13:33:19.517Z,98116.38
2018-02-14T13:35:47.783Z,98128.64
2018-02-14T13:38:16.073Z,98126.02
2018-02-14T13:40:44.348Z,98123.47
2018-02-14T13:43:12.637Z,98128.02
2018-02-14T13:45:40.900Z,98125.63
2018-02-14T13:48:09.172Z,98120.63
2018-02-14T13:50:37.462Z,98113.55
2018-02-14T13:53:05.724Z,98111.86
2018-02-14T13:55:33.981Z,98116.73
2018-02-14T13:58:02.345Z,98118.82
2018-02-14T14:00:30.611Z,98118.81
2018-02-14T14:02:58.880Z,98114.10
2018-02-14T14:05:27.161Z,98112.22
2018-02-14T14:07:55.429Z,98107.61
2018-02-14T14:10:23.705Z,98114.88
2018-02-14T14:12:51.988Z,98115.23
2018-02-14T14:15:20.268Z,98113.73
2018-02-14T14:17:48.546Z,98123.88
2018-02-14T14:20:16.832Z,98119.63
2018-02-14T14:22:45.109Z,98116.42
2018-02-14T14:25:13.385Z,98121.55
2018-02-14T14:27:41.664Z,98119.16
2018-02-14T14:30:09.960Z,98123.13
2018-02-14T14:32:38.231Z,98122.77
2018-02-14T14:35:06.684Z,98120.15
2018-02-14T14:37:34.951Z,98121.86
2018-02-14T14:40:03.236Z,98122.14
2018-02-14T14:42:31.522Z,98123.86
2018-02-14T14:44:59.901Z,98109.63
2018-02-14T14:47:28.183Z,98121.19
2018-02-14T14:49:56.472Z,98119.05
2018-02-14T14:52:24.758Z,98121.08
2018-02-14T14:54:53.057Z,98127.89
2018-02-14T14:57:21.308Z,98120.17
2018-02-14T14:59:49.645Z,98121.20
2018-02-14T15:02:18.033Z,98118.83
2018-02-14T15:04:46.358Z,98123.79
2018-02-14T15:07:14.604Z,98126.59
2018-02-14T15:09:42.964Z,98123.34
2018-02-14T15:12:11.252Z,98133.20
2018-02-14T15:14:39.613Z,98131.80
2018-02-14T15:17:07.901Z,98132.36
2018-02-14T15:19:36.211Z,98125.52
2018-02-14T15:22:04.589Z,98121.56
2018-02-14T15:24:32.833Z,98118.59
2018-02-14T15:27:01.127Z,98118.16
2018-02-14T15:29:29.393Z,98115.31
2018-02-14T15:31:57.857Z,98126.27
2018-02-14T15:34:26.149Z,98122.49
2018-02-14T15:36:54.440Z,98131.00
2018-02-14T15:39:22.829Z,98135.84
2018-02-14T15:41:51.125Z,98139.44
2018-02-14T15:44:20.262Z,98138.00
2018-02-14T15:46:48.538Z,98138.48
2018-02-14T15:49:16.911Z,98139.80
2018-02-14T15:51:45.184Z,98143.47
2018-02-14T15:54:13.570Z,98141.80
2018-02-14T15:56:41.993Z,98140.82
2018-02-14T15:59:10.287Z,98140.05
2018-02-14T16:01:39.314Z,98138.27
2018-02-14T16:04:07.697Z,98142.84
2018-02-14T16:06:35.955Z,98144.31
2018-02-14T16:09:04.233Z,98143.68
2018-02-14T16:11:32.531Z,98149.28
2018-02-14T16:14:00.796Z,98150.64
2018-02-14T16:16:29.056Z,98154.09
2018-02-14T16:18:57.336Z,98153.69
2018-02-14T16:21:25.596Z,98148.63
2018-02-14T16:23:54.720Z,98157.74
2018-02-14T16:26:23.019Z,98162.95
2018-02-14T16:28:51.390Z,98169.02
2018-02-14T16:31:19.639Z,98176.81
2018-02-14T16:33:47.937Z,98183.26
2018-02-14T16:36:16.200Z,98187.45
2018-02-14T16:38:44.468Z,98200.92
2018-02-14T16:41:12.752Z,98201.25
2018-02-14T16:43:41.051Z,98200.77
2018-02-14T16:46:09.316Z,98201.59
2018-02-14T16:48:37.620Z,98200.80
2018-02-14T16:51:05.883Z,98207.97
2018-02-14T16:53:34.145Z,98210.61
2018-02-14T16:56:02.448Z,98218.68
2018-02-14T16:58:30.738Z,98220.11
2018-02-14T17:00:59.013Z,98227.98
2018-02-14T17:03:27.289Z,98226.11
2018-02-14T17:05:55.618Z,98229.91
2018-02-14T17:08:23.892Z,98229.49
2018-02-14T17:10:52.279Z,98236.64
2018-02-14T17:13:20.544Z,98240.77
2018-02-14T17:15:48.824Z,98240.37
2018-02-14T17:18:17.089Z,98241.11
2018-02-14T17:20:45.359Z,98236.52
2018-02-14T17:23:13.795Z,98235.14
2018-02-14T17:25:42.842Z,98229.53
2018-02-14T17:28:11.102Z,98225.35
2018-02-14T17:30:39.382Z,98231.81
2018-02-14T17:33:07.633Z,98240.14
2018-02-14T17:35:36.661Z,98237.72
2018-02-14T17:38:04.939Z,98240.63
2018-02-14T17:40:33.275Z,98247.55
2018-02-14T17:43:01.709Z,98241.92
2018-02-14T17:45:30.001Z,98246.95
2018-02-14T17:47:58.343Z,98240.39
2018-02-14T17:50:26.825Z,98243.33
2018-02-14T17:52:55.108Z,98238.59
2018-02-14T17:55:23.441Z,98236.92
2018-02-14T17:57:52.647Z,98239.16
2018-02-14T18:00:21.899Z,98239.23
2018-02-14T18:02:51.376Z,98241.75
2018-02-14T18:05:20.116Z,98244.60
2018-02-14T18:07:49.683Z,98252.28
2018-02-14T18:10:19.587Z,98244.59
2018-02-14T18:12:49.171Z,98237.86
2018-02-14T18:15:17.994Z,98246.02
2018-02-14T18:17:47.257Z,98249.22
2018-02-14T18:20:16.605Z,98256.37
2018-02-14T18:22:46.587Z,98254.66
2018-02-14T18:25:16.459Z,98251.39
2018-02-14T18:27:46.276Z,98243.79
2018-02-14T18:30:16.431Z,98249.72
2018-02-14T18:32:46.675Z,98255.40
2018-02-14T18:35:16.694Z,98259.95
2018-02-14T18:37:46.632Z,98265.67
2018-02-14T18:40:16.600Z,98270.68
2018-02-14T18:42:46.450Z,98272.34
2018-02-14T18:45:16.221Z,98264.88
2018-02-14T18:47:47.633Z,98258.58
2018-02-14T18:50:17.496Z,98267.54
2018-02-14T18:52:48.371Z,98261.67
2018-02-14T18:55:18.238Z,98259.62
2018-02-14T18:57:49.218Z,98251.62
2018-02-14T19:00:20.019Z,98252.97
2018-02-14T19:02:51.201Z,98255.31
2018-02-14T19:05:21.428Z,98256.69
2018-02-14T19:07:51.632Z,98262.89
2018-02-14T19:10:21.521Z,98260.08
2018-02-14T19:12:52.201Z,98250.72
2018-02-14T19:15:21.975Z,98249.14
2018-02-14T19:17:52.109Z,98245.05
2018-02-14T19:20:23.236Z,98240.28
2018-02-14T19:22:53.029Z,98234.98
2018-02-14T19:25:23.846Z,98237.45
2018-02-14T19:27:53.826Z,98237.23
2018-02-14T19:30:23.753Z,98232.89
2018-02-14T19:32:53.700Z,98241.97
2018-02-14T19:35:24.561Z,98238.91
2018-02-14T19:37:54.503Z,98245.03
2018-02-14T19:40:24.556Z,98240.70
2018-02-14T19:42:54.559Z,98239.09
2018-02-14T19:45:25.560Z,98241.50
2018-02-14T19:47:55.805Z,98236.52
2018-02-14T19:50:25.172Z,98229.55
2018-02-14T19:52:56.024Z,98230.68
2018-02-14T19:55:25.861Z,98232.94
2018-02-14T19:57:55.420Z,98235.66
2018-02-14T20:00:26.386Z,98227.03
2018-02-14T20:02:56.495Z,98224.03
2018-02-14T20:05:26.232Z,98218.41
2018-02-14T20:07:56.228Z,98210.93
2018-02-14T20:10:26.150Z,98204.58
2018-02-14T20:12:55.597Z,98201.79
2018-02-14T20:15:25.589Z,98207.19
2018-02-14T20:17:55.219Z,98212.89
2018-02-14T20:20:24.699Z,98211.22
2018-02-14T20:22:54.183Z,98210.17
2018-02-14T20:25:23.651Z,98210.93
2018-02-14T20:27:54.813Z,98212.62
2018-02-14T20:30:24.159Z,98211.77
2018-02-14T20:32:53.609Z,98213.23
2018-02-14T20:35:23.129Z,98210.97
2018-02-14T20:37:52.409Z,98206.71
2018-02-14T20:40:21.774Z,98206.02
2018-02-14T20:42:51.318Z,98200.43
2018-02-14T20:45:20.630Z,98199.27
2018-02-14T20:47:50.907Z,98212.50
2018-02-14T20:50:20.281Z,98215.05
2018-02-14T20:52:49.709Z,98222.19
2018-02-14T20:55:19.153Z,98219.41
2018-02-14T20:57:49.264Z,98219.73
2018-02-14T21:00:19.486Z,98218.34
2018-02-14T21:02:48.801Z,98220.94
2018-02-14T21:05:18.144Z,98220.08
2018-02-14T21:07:47.548Z,98217.87
2018-02-14T21:10:17.100Z,98211.61
2018-02-14T21:12:47.286Z,98204.89
2018-02-14T21:15:16.716Z,98203.23
2018-02-14T21:17:47.035Z,98210.37
2018-02-14T21:20:17.132Z,98207.81
2018-02-14T21:22:46.821Z,98198.56
2018-02-14T21:25:16.194Z,98199.83
2018-02-14T21:27:45.500Z,98186.92
2018-02-14T21:30:14.916Z,98191.98
2018-02-14T21:32:44.306Z,98193.55
2018-02-14T21:35:13.771Z,98188.44
2018-02-14T21:37:43.948Z,98195.52
2018-02-14T21:40:13.256Z,98194.16
2018-02-14T21:42:42.528Z,98197.77
2018-02-14T21:45:11.970Z,98195.62
2018-02-14T21:47:41.258Z,98198.73
2018-02-14T21:50:10.645Z,98201.83
2018-02-14T21:52:40.070Z,98192.25
2018-02-14T21:55:09.403Z,98186.53
2018-02-14T21:57:39.927Z,98181.34
2018-02-14T22:00:09.951Z,98178.78
2018-02-14T22:02:40.641Z,98171.37
2018-02-14T22:05:10.420Z,98165.69
2018-02-14T22:07:40.096Z,98155.45
2018-02-14T22:10:10.690Z,98150.95
2018-02-14T22:12:40.390Z,98152.62
2018-02-14T22:15:08.861Z,98148.31
2018-02-14T22:17:37.879Z,98148.52
2018-02-14T22:20:06.171Z,98145.51
2018-02-14T22:22:35.238Z,98153.44
2018-02-14T22:25:03.533Z,98157.05
2018-02-14T22:27:32.621Z,98160.65
2018-02-14T22:30:00.897Z,98165.05
2018-02-14T22:32:29.173Z,98166.84
2018-02-14T22:34:57.469Z,98162.96
2018-02-14T22:37:26.501Z,98166.73
2018-02-14T22:39:54.771Z,98171.93
2018-02-14T22:42:23.060Z,98168.53
2018-02-14T22:44:51.388Z,98156.89
2018-02-14T22:47:20.433Z,98154.38
2018-02-14T22:49:48.723Z,98148.71
2018-02-14T22:52:17.849Z,98139.56
2018-02-14T22:54:46.891Z,98134.89
2018-02-14T22:57:15.200Z,98143.28
2018-02-14T22:59:43.476Z,98149.33
2018-02-14T23:02:11.740Z,98154.30
2018-02-14T23:04:40.042Z,98150.27
2018-02-14T23:07:09.075Z,98149.23
2018-02-14T23:09:38.605Z,98140.60
2018-02-14T23:12:06.896Z,98139.81
2018-02-14T23:14:35.175Z,98141.55
2018-02-14T23:17:03.439Z,98141.66
2018-02-14T23:19:31.733Z,98143.77
2018-02-14T23:22:00.018Z,98138.80
2018-02-14T23:24:29.056Z,98142.71
2018-02-14T23:26:57.348Z,98144.59
2018-02-14T23:29:25.620Z,98149.53
2018-02-14T23:31:53.892Z,98146.84
2018-02-14T23:34:22.173Z,98142.00
2018-02-14T23:36:50.469Z,98139.95
2018-02-14T23:39:18.740Z,98138.69
2018-02-14T23:41:47.020Z,98137.98
2018-02-14T23:44:15.303Z,98137.61
2018-02-14T23:46:43.574Z,98141.55
2018-02-14T23:49:11.852Z,98137.72
2018-02-14T23:51:40.850Z,98136.20
2018-02-14T23:54:09.120Z,98134.30
2018-02-14T23:56:37.408Z,98125.45
2018-02-14T23:59:05.689Z,98123.25
